Time;durP1;ratioP1;P1;durP2;ratioP2;P2;SDS_P1;SDS_P2;PMS_P1;PMS_P2;Temp;Humidity;BMP_temperature;BMP_pressure;BME280_temperature;BME280_humidity;BME280_pressure;Samples;Min_cycle;Max_cycle;Signal;HPM_P1;HPM_P2
2022/10/02 08:24:14;;;;;;;;;0.00;0.00;;;;;18.07;77.27;101532.00;5113953;27;45457;-61
2022/10/02 08:26:48;;;;;;;;;0.00;0.00;;;;;18.23;77.54;101537.28;5096558;27;45324;-60
2022/10/02 08:29:55;;;;;;;;;1.50;1.25;;;;;18.33;76.79;101543.00;5095769;27;45391;-61
2022/10/02 08:32:21;;;;;;;;;3.00;1.75;;;;;18.30;76.44;101543.19;5094890;27;45255;-62
2022/10/02 08:34:47;;;;;;;;;1.75;1.00;;;;;18.35;76.29;101535.63;5096287;27;46143;-60
2022/10/02 08:37:34;;;;;;;;;0.75;0.75;;;;;18.41;75.56;101552.38;5096536;27;45298;-61
2022/10/02 08:40:18;;;;;;;;;2.00;1.00;;;;;18.51;75.88;101544.50;5096352;27;45296;-61
2022/10/02 08:43:08;;;;;;;;;1.50;1.50;;;;;18.53;75.90;101548.88;5095840;27;45322;-62
2022/10/02 08:46:05;;;;;;;;;1.75;1.25;;;;;18.60;75.40;101560.22;5095678;27;45430;-60
2022/10/02 08:48:42;;;;;;;;;1.00;1.00;;;;;18.64;75.33;101558.16;5086995;27;45333;-62
2022/10/02 08:51:32;;;;;;;;;1.00;1.00;;;;;18.75;74.22;101550.16;5096295;27;45412;-62
2022/10/02 08:54:14;;;;;;;;;1.75;1.00;;;;;18.70;74.62;101558.63;5096120;27;45313;-62
2022/10/02 08:56:51;;;;;;;;;2.00;1.75;;;;;18.72;74.46;101556.66;5095925;27;45375;-57
2022/10/02 08:59:37;;;;;;;;;2.00;2.00;;;;;18.73;75.11;101563.84;5095468;27;45377;-57
2022/10/02 09:02:26;;;;;;;;;3.50;2.00;;;;;18.76;74.47;101560.06;5096031;27;45318;-57
2022/10/02 09:04:59;;;;;;;;;1.00;1.00;;;;;18.77;73.92;101553.66;5095701;27;45970;-57
2022/10/02 09:07:56;;;;;;;;;1.00;1.00;;;;;18.82;74.34;101546.06;5094500;27;45299;-58
2022/10/02 09:10:44;;;;;;;;;3.00;1.00;;;;;18.94;74.40;101568.81;5093210;27;45446;-58
2022/10/02 09:13:28;;;;;;;;;2.25;0.75;;;;;18.98;74.21;101557.63;5082548;27;45448;-64
2022/10/02 09:16:10;;;;;;;;;1.00;1.00;;;;;18.93;73.64;101557.09;5095262;27;45222;-66
2022/10/02 09:19:26;;;;;;;;;0.50;0.50;;;;;18.99;73.54;101543.06;5095472;27;46154;-66
2022/10/02 09:22:07;;;;;;;;;0.50;0.50;;;;;19.06;73.92;101557.97;5095246;27;45367;-65
2022/10/02 09:24:54;;;;;;;;;1.25;1.25;;;;;19.06;73.52;101552.53;5084468;27;45677;-66
2022/10/02 09:30:10;;;;;;;;;0.50;0.50;;;;;19.17;73.75;101539.09;1417276;26;45949;-70
2022/10/02 09:33:00;;;;;;;;;2.75;1.50;;;;;19.23;73.30;101541.38;5014872;28;45484;-70
2022/10/02 09:36:05;;;;;;;;;1.00;1.00;;;;;19.30;73.42;101541.84;5016853;28;45361;-69
2022/10/02 09:38:33;;;;;;;;;2.00;1.00;;;;;19.37;72.96;101547.72;5022511;28;45431;-70
2022/10/02 09:41:40;;;;;;;;;0.00;0.00;;;;;19.29;72.19;101545.53;5016120;28;45388;-69
2022/10/02 09:44:40;;;;;;;;;1.25;1.00;;;;;19.34;72.69;101539.75;5015989;28;45276;-71
2022/10/02 09:50:46;;;;;;;;;0.00;0.00;;;;;19.19;72.72;101539.88;5016141;28;45926;-71
2022/10/02 09:53:28;;;;;;;;;1.00;1.00;;;;;19.28;72.98;101536.50;5016738;28;45634;-69
2022/10/02 09:56:21;;;;;;;;;1.00;1.00;;;;;19.37;72.62;101542.28;5014836;28;45604;-72
2022/10/02 09:59:18;;;;;;;;;0.50;0.50;;;;;19.41;72.10;101547.38;5016672;28;45347;-74
2022/10/02 10:01:53;;;;;;;;;0.50;0.00;;;;;19.53;72.25;101545.69;5008686;28;45336;-73
2022/10/02 10:04:27;;;;;;;;;1.00;1.00;;;;;19.67;71.93;101551.00;5015535;28;45563;-72
2022/10/02 10:07:48;;;;;;;;;0.00;0.00;;;;;19.68;71.21;101554.59;5015202;28;45461;-73
2022/10/02 10:10:24;;;;;;;;;0.50;0.50;;;;;19.50;71.22;101541.34;5017973;28;45393;-75
2022/10/02 10:13:11;;;;;;;;;0.50;0.50;;;;;19.76;70.88;101546.78;5015944;28;45482;-76
2022/10/02 10:15:56;;;;;;;;;0.50;0.50;;;;;19.89;70.45;101550.38;5014134;28;46108;-77
2022/10/02 10:19:01;;;;;;;;;0.50;0.50;;;;;19.97;70.22;101546.13;5019716;28;45339;-76
2022/10/02 10:21:36;;;;;;;;;0.50;0.50;;;;;19.97;69.54;101553.41;4963679;28;45439;-73
2022/10/02 10:24:22;;;;;;;;;0.50;0.50;;;;;19.90;69.67;101541.22;5015316;28;45453;-76
2022/10/02 10:27:08;;;;;;;;;0.50;0.50;;;;;19.87;69.68;101553.19;5016528;28;47251;-75
2022/10/02 10:29:39;;;;;;;;;0.50;0.50;;;;;19.84;69.97;101553.41;5015497;28;45523;-75
2022/10/02 10:32:47;;;;;;;;;0.00;0.00;;;;;19.94;70.02;101556.34;5015904;28;45537;-76
2022/10/02 10:35:37;;;;;;;;;0.00;0.00;;;;;20.01;69.21;101549.47;5013358;28;45382;-76
2022/10/02 10:38:41;;;;;;;;;1.25;1.25;;;;;20.15;69.26;101545.75;5020510;28;46867;-69
2022/10/02 10:41:21;;;;;;;;;0.00;0.00;;;;;20.16;68.30;101550.22;5014879;28;45365;-69
2022/10/02 10:44:08;;;;;;;;;1.00;1.00;;;;;20.21;67.80;101550.75;5015364;28;45455;-70
2022/10/02 10:47:03;;;;;;;;;1.00;1.00;;;;;20.30;67.05;101544.63;5015846;28;45471;-74
2022/10/02 10:49:43;;;;;;;;;1.75;1.00;;;;;20.35;67.71;101550.63;5014990;28;45617;-73
2022/10/02 10:52:17;;;;;;;;;1.00;1.00;;;;;20.37;66.59;101545.94;5015216;28;45439;-67
2022/10/02 10:55:06;;;;;;;;;0.00;0.00;;;;;20.18;65.80;101518.28;5016513;28;45380;-65
2022/10/02 10:57:38;;;;;;;;;0.00;0.00;;;;;20.34;65.61;101536.13;4998066;28;46465;-70
2022/10/02 11:00:16;;;;;;;;;1.00;1.00;;;;;20.42;65.23;101545.59;5006257;28;46322;-68
2022/10/02 11:03:22;;;;;;;;;1.25;1.00;;;;;20.46;65.14;101547.09;5014088;28;45311;-69
2022/10/02 11:06:06;;;;;;;;;0.00;0.00;;;;;20.42;64.93;101541.00;5014435;28;45516;-68
2022/10/02 11:08:57;;;;;;;;;0.25;0.25;;;;;20.50;65.19;101554.91;5014594;28;45460;-70
2022/10/02 11:11:43;;;;;;;;;1.25;0.25;;;;;20.49;65.62;101546.91;5013769;28;47252;-72
2022/10/02 11:14:35;;;;;;;;;1.00;1.00;;;;;20.47;65.13;101546.13;5026359;28;45404;-74
2022/10/02 11:17:19;;;;;;;;;0.00;0.00;;;;;20.52;65.26;101547.50;5014909;28;45448;-73
2022/10/02 11:20:03;;;;;;;;;0.25;0.25;;;;;20.62;65.02;101534.06;5015722;28;45411;-74
2022/10/02 11:22:37;;;;;;;;;0.00;0.00;;;;;20.71;64.55;101533.38;5014923;28;45390;-76
2022/10/02 11:25:29;;;;;;;;;2.00;0.50;;;;;20.79;64.67;101550.03;5014971;28;45610;-74
2022/10/02 11:28:32;;;;;;;;;2.00;0.00;;;;;20.73;64.19;101542.31;5005003;28;45224;-72
2022/10/02 11:31:06;;;;;;;;;0.00;0.00;;;;;20.69;64.87;101551.69;4922691;28;46434;-75
2022/10/02 11:33:59;;;;;;;;;1.00;1.00;;;;;20.64;65.19;101562.09;4934300;28;45689;-74
2022/10/02 11:36:40;;;;;;;;;0.50;0.50;;;;;20.55;65.70;101563.63;4990959;28;45378;-77
2022/10/02 11:39:13;;;;;;;;;0.00;0.00;;;;;20.49;65.84;101555.94;5014782;28;45373;-76
2022/10/02 11:42:08;;;;;;;;;0.00;0.00;;;;;20.46;66.12;101558.88;5015394;28;45338;-75
2022/10/02 11:44:57;;;;;;;;;2.75;0.75;;;;;20.39;65.60;101541.25;5000283;28;47167;-78
2022/10/02 11:47:47;;;;;;;;;0.00;0.00;;;;;20.43;65.34;101559.09;5007048;28;45463;-78
2022/10/02 11:50:28;;;;;;;;;2.25;1.00;;;;;20.40;65.71;101575.69;5016050;28;45379;-77
2022/10/02 11:53:33;;;;;;;;;0.50;0.50;;;;;20.24;69.93;101585.94;5018171;28;45555;-77
2022/10/02 11:56:22;;;;;;;;;3.50;1.00;;;;;20.09;72.21;101593.34;5013033;28;48110;-74
2022/10/02 11:59:18;;;;;;;;;0.00;0.00;;;;;19.91;73.53;101586.47;5014182;28;45469;-69
2022/10/02 12:01:57;;;;;;;;;3.75;3.75;;;;;19.86;75.40;101580.50;5002084;28;45549;-72
2022/10/02 12:04:33;;;;;;;;;1.00;1.00;;;;;19.83;76.45;101581.59;5013781;28;45582;-74
2022/10/02 12:07:18;;;;;;;;;2.25;2.25;;;;;19.79;77.41;101587.38;5014046;28;45695;-72
2022/10/02 12:10:12;;;;;;;;;1.00;0.50;;;;;20.14;75.33;101584.84;5005958;28;45376;-76
2022/10/02 12:12:37;;;;;;;;;0.50;0.50;;;;;20.65;75.54;101582.91;5009176;28;45556;-76
2022/10/02 12:15:09;;;;;;;;;3.50;2.25;;;;;20.99;73.46;101576.66;5016778;28;45444;-73
2022/10/02 12:17:41;;;;;;;;;3.00;0.25;;;;;21.20;71.39;101571.41;5013306;28;45516;-74
2022/10/02 12:29:29;;;;;;;;;1.50;1.50;;;;;21.75;68.32;101561.63;5004765;28;45811;-74
2022/10/02 12:32:06;;;;;;;;;0.75;0.75;;;;;21.58;69.44;101575.75;5014086;28;45402;-80
2022/10/02 12:34:56;;;;;;;;;2.00;0.00;;;;;21.28;70.60;101584.44;5014503;28;45466;-78
2022/10/02 12:37:44;;;;;;;;;2.50;1.75;;;;;21.00;72.88;101575.66;5013997;28;45501;-75
2022/10/02 12:40:22;;;;;;;;;0.75;0.00;;;;;20.79;73.08;101577.28;5014917;28;45490;-71
2022/10/02 12:42:59;;;;;;;;;2.50;1.50;;;;;20.94;72.98;101570.66;5015073;28;45478;-75
2022/10/02 12:45:30;;;;;;;;;2.00;2.00;;;;;21.10;71.14;101567.63;5012295;28;45331;-75
2022/10/02 12:48:25;;;;;;;;;1.00;1.00;;;;;21.14;70.79;101561.81;5013259;28;45417;-75
2022/10/02 12:51:11;;;;;;;;;0.00;0.00;;;;;21.45;69.76;101551.28;5013321;28;46415;-76
2022/10/02 12:54:10;;;;;;;;;0.50;0.50;;;;;22.13;67.20;101556.72;5012990;28;45363;-75
2022/10/02 12:56:56;;;;;;;;;1.25;1.25;;;;;22.07;65.87;101556.34;5008048;28;45288;-74
2022/10/02 12:59:54;;;;;;;;;0.25;0.25;;;;;21.82;66.88;101568.34;5014503;28;45534;-75
2022/10/02 13:02:38;;;;;;;;;1.00;1.00;;;;;21.57;66.40;101555.78;5018517;28;47653;-77
2022/10/02 13:05:27;;;;;;;;;0.00;0.00;;;;;21.50;67.58;101549.06;5018162;28;45383;-79
2022/10/02 13:08:17;;;;;;;;;0.00;0.00;;;;;21.92;66.62;101560.28;4997593;28;45547;-78
2022/10/02 13:10:56;;;;;;;;;1.50;0.75;;;;;22.11;65.04;101569.66;5019010;28;45453;-81
2022/10/02 13:13:40;;;;;;;;;0.00;0.00;;;;;22.38;64.02;101563.75;5018612;28;46020;-82
2022/10/02 13:16:19;;;;;;;;;0.00;0.00;;;;;22.63;61.96;101562.59;5020251;28;45366;-79
2022/10/02 13:19:08;;;;;;;;;2.25;1.50;;;;;22.88;60.58;101575.13;5018693;28;45365;-76
2022/10/02 13:22:13;;;;;;;;;0.00;0.00;;;;;23.17;60.96;101557.09;5023680;28;45360;-82
2022/10/02 13:24:44;;;;;;;;;0.50;0.50;;;;;23.25;59.68;101561.91;5022734;28;45467;-78
2022/10/02 13:27:36;;;;;;;;;0.00;0.00;;;;;23.77;58.24;101550.03;5022344;28;45186;-75
2022/10/02 13:30:15;;;;;;;;;0.00;0.00;;;;;23.86;55.57;101579.34;5016327;28;45584;-77
2022/10/02 13:33:09;;;;;;;;;0.00;0.00;;;;;23.89;56.25;101567.25;5013423;28;45535;-76
2022/10/02 13:35:47;;;;;;;;;0.50;0.00;;;;;23.59;56.46;101566.22;5016971;28;46457;-76
2022/10/02 13:38:18;;;;;;;;;1.00;0.00;;;;;23.09;56.51;101573.28;5016540;28;45339;-78
2022/10/02 13:41:05;;;;;;;;;0.00;0.00;;;;;22.74;57.61;101546.19;5015491;28;45541;-77
2022/10/02 13:43:51;;;;;;;;;0.00;0.00;;;;;22.67;57.45;101577.75;5017143;28;45579;-78
2022/10/02 13:46:24;;;;;;;;;0.00;0.00;;;;;22.71;57.72;101579.25;5016658;28;46099;-74
2022/10/02 13:49:14;;;;;;;;;1.75;0.00;;;;;22.53;58.30;101584.38;5017039;28;45218;-75
2022/10/02 13:51:39;;;;;;;;;0.75;0.00;;;;;22.31;58.73;101611.69;5017355;28;45397;-79
2022/10/02 13:54:32;;;;;;;;;0.00;0.00;;;;;22.09;60.00;101614.44;5016343;28;45417;-82
2022/10/02 13:57:27;;;;;;;;;0.00;0.00;;;;;21.87;60.86;101612.50;5016248;28;46191;-85
2022/10/02 13:59:58;;;;;;;;;0.00;0.00;;;;;21.83;61.25;101632.88;4999092;28;45423;-74
2022/10/02 14:02:55;;;;;;;;;0.00;0.00;;;;;21.65;62.02;101627.00;5015164;28;45338;-75
2022/10/02 14:05:40;;;;;;;;;0.00;0.00;;;;;21.46;62.23;101660.28;5013331;28;45354;-72
2022/10/02 14:08:20;;;;;;;;;0.75;0.75;;;;;21.21;63.67;101667.75;5016389;28;48044;-76
2022/10/02 14:10:52;;;;;;;;;0.00;0.00;;;;;20.97;63.46;101667.69;5018842;28;45320;-77
2022/10/02 14:13:32;;;;;;;;;0.00;0.00;;;;;20.79;63.72;101686.28;5020894;28;45537;-76
2022/10/02 14:16:30;;;;;;;;;0.00;0.00;;;;;20.61;64.52;101679.47;5014554;28;45422;-75
2022/10/02 14:19:28;;;;;;;;;0.00;0.00;;;;;20.44;64.84;101682.53;5003808;28;45353;-75
2022/10/02 14:22:08;;;;;;;;;0.00;0.00;;;;;20.21;65.79;101657.81;4998019;28;45475;-75
2022/10/02 14:25:02;;;;;;;;;0.00;0.00;;;;;20.16;64.77;101659.97;5014738;28;45354;-78
2022/10/02 14:27:52;;;;;;;;;0.00;0.00;;;;;20.29;64.14;101696.25;5021518;28;45321;-70
2022/10/02 14:30:21;;;;;;;;;0.25;0.25;;;;;20.23;64.46;101693.97;5015314;28;45471;-72
2022/10/02 14:33:10;;;;;;;;;0.00;0.00;;;;;20.15;63.67;101693.66;5014648;28;45345;-70
2022/10/02 14:36:01;;;;;;;;;0.50;0.50;;;;;20.10;64.24;101706.69;5014423;28;46123;-71
2022/10/02 14:38:48;;;;;;;;;0.50;0.50;;;;;20.04;64.18;101712.59;5000769;28;45373;-70
2022/10/02 14:41:31;;;;;;;;;0.00;0.00;;;;;19.99;64.52;101715.59;5016341;28;46071;-70
2022/10/02 14:44:27;;;;;;;;;0.00;0.00;;;;;19.92;64.81;101719.75;5022113;28;45726;-70
2022/10/02 14:47:06;;;;;;;;;2.00;0.50;;;;;19.85;66.15;101725.72;5010323;28;45517;-69
2022/10/02 14:49:57;;;;;;;;;4.00;4.00;;;;;19.87;65.82;101737.38;5024285;28;45507;-72
2022/10/02 14:52:50;;;;;;;;;1.00;1.00;;;;;19.81;65.68;101745.97;5017418;28;46146;-70
2022/10/02 14:55:34;;;;;;;;;0.50;0.50;;;;;19.69;65.65;101753.13;5018357;28;45423;-72
2022/10/02 14:58:15;;;;;;;;;0.00;0.00;;;;;19.59;64.73;101743.81;5017806;28;45357;-75
2022/10/02 15:00:52;;;;;;;;;0.25;0.25;;;;;19.60;65.39;101760.06;5013548;28;46076;-71
2022/10/02 15:03:38;;;;;;;;;0.50;0.50;;;;;19.54;65.48;101746.00;5015253;28;46499;-71
2022/10/02 15:06:09;;;;;;;;;1.00;1.00;;;;;19.53;65.81;101753.28;5015422;28;45369;-77
2022/10/02 15:08:47;;;;;;;;;1.00;1.00;;;;;19.50;64.73;101766.22;5013587;28;45439;-73
2022/10/02 15:11:34;;;;;;;;;1.00;1.00;;;;;19.49;65.64;101773.50;5014927;28;45606;-71
2022/10/02 15:14:10;;;;;;;;;1.75;0.75;;;;;19.47;64.98;101771.84;5013101;28;45468;-72
2022/10/02 15:19:48;;;;;;;;;0.00;0.00;;;;;19.36;64.63;101756.22;5014784;28;45415;-72
2022/10/02 15:22:23;;;;;;;;;0.00;0.00;;;;;19.39;64.95;101769.63;4997047;28;47232;-72
2022/10/02 15:24:57;;;;;;;;;0.00;0.00;;;;;19.41;65.95;101780.38;5014724;28;45582;-73
2022/10/02 15:27:43;;;;;;;;;0.50;0.50;;;;;19.41;65.65;101780.38;4996852;28;45685;-71
2022/10/02 15:30:20;;;;;;;;;1.50;0.00;;;;;19.24;64.96;101762.47;5006761;28;45582;-71
2022/10/02 15:33:06;;;;;;;;;1.00;1.00;;;;;19.41;64.89;101802.13;5034651;28;45701;-75
2022/10/02 15:35:38;;;;;;;;;1.50;0.50;;;;;19.41;64.73;101803.00;5034902;28;46653;-77
2022/10/02 15:38:33;;;;;;;;;0.50;0.50;;;;;19.37;64.76;101803.34;5033068;28;46146;-76
2022/10/02 15:41:11;;;;;;;;;3.00;3.00;;;;;19.29;64.76;101806.56;5034609;28;45353;-72
2022/10/02 15:43:48;;;;;;;;;5.00;5.00;;;;;19.25;64.86;101810.44;5035299;28;45377;-71
2022/10/02 15:46:41;;;;;;;;;2.50;2.50;;;;;19.20;65.79;101812.59;5033841;28;46808;-73
2022/10/02 15:49:21;;;;;;;;;3.00;2.50;;;;;19.18;65.01;101818.13;5034745;28;45338;-73
2022/10/02 15:52:04;;;;;;;;;1.50;1.50;;;;;19.14;65.54;101816.56;5032906;28;45494;-72
2022/10/02 15:55:04;;;;;;;;;2.00;2.00;;;;;19.02;65.77;101803.78;5034009;28;45519;-71
2022/10/02 15:58:04;;;;;;;;;0.50;0.50;;;;;19.06;65.94;101813.47;5034066;28;45547;-74
2022/10/02 16:00:59;;;;;;;;;2.00;2.00;;;;;18.91;65.48;101795.44;5034245;28;45482;-74
2022/10/02 16:03:27;;;;;;;;;5.50;5.00;;;;;18.94;66.18;101811.56;5032993;28;45328;-74
2022/10/02 16:06:02;;;;;;;;;1.00;1.00;;;;;18.94;64.85;101817.00;5032753;28;46671;-70
2022/10/02 16:08:40;;;;;;;;;3.00;3.00;;;;;18.98;64.98;101815.81;5030976;28;45477;-75
2022/10/02 16:11:17;;;;;;;;;2.00;2.00;;;;;18.97;65.99;101826.81;5034333;28;45350;-74
2022/10/02 16:13:59;;;;;;;;;0.50;0.50;;;;;18.93;64.76;101811.66;5037289;28;45463;-80
2022/10/02 16:16:38;;;;;;;;;1.00;1.00;;;;;19.01;65.54;101825.63;5034444;28;45807;-76
2022/10/02 16:19:22;;;;;;;;;1.00;1.00;;;;;19.03;65.54;101829.13;5028693;28;46243;-76
2022/10/02 16:22:21;;;;;;;;;1.00;1.00;;;;;19.02;63.86;101830.97;5040413;28;45878;-77
2022/10/02 16:24:57;;;;;;;;;2.75;2.75;;;;;18.99;63.87;101814.84;5055940;28;45602;-84
2022/10/02 16:27:44;;;;;;;;;1.75;1.75;;;;;19.07;63.59;101827.94;5038748;28;46246;-74
2022/10/02 16:30:14;;;;;;;;;3.25;2.00;;;;;19.01;64.60;101826.50;5037103;28;45460;-76
2022/10/02 16:33:31;;;;;;;;;2.00;2.00;;;;;19.02;64.73;101841.81;5034094;28;45488;-76
2022/10/02 16:36:18;;;;;;;;;1.00;1.00;;;;;18.88;64.80;101820.09;5012015;28;45475;-76
2022/10/02 16:38:50;;;;;;;;;1.50;1.50;;;;;19.03;63.88;101849.00;5037211;28;45551;-75
2022/10/02 16:41:38;;;;;;;;;1.00;1.00;;;;;19.01;64.56;101853.66;5036227;28;46052;-75
2022/10/02 16:44:48;;;;;;;;;2.00;2.00;;;;;18.96;63.47;101855.81;5051637;28;45380;-78
2022/10/02 16:47:27;;;;;;;;;1.00;1.00;;;;;18.88;64.12;101850.00;5032986;28;45560;-75
2022/10/02 16:50:01;;;;;;;;;2.50;2.50;;;;;18.88;64.12;101858.16;5032975;28;46037;-74
2022/10/02 16:52:51;;;;;;;;;4.00;2.00;;;;;18.85;64.28;101866.47;5050688;28;48278;-75
2022/10/02 16:55:22;;;;;;;;;1.25;1.25;;;;;18.83;65.27;101873.84;5036048;28;45509;-76
2022/10/02 16:57:52;;;;;;;;;1.75;1.75;;;;;18.77;64.63;101874.22;5035556;28;45713;-74
2022/10/02 17:00:21;;;;;;;;;1.00;1.00;;;;;18.74;65.40;101872.56;5035352;28;45770;-74
2022/10/02 17:03:04;;;;;;;;;2.00;2.00;;;;;18.70;64.87;101881.91;5040371;28;45485;-74
2022/10/02 17:05:53;;;;;;;;;1.00;1.00;;;;;18.64;65.46;101887.69;5038835;28;45244;-73
2022/10/02 17:08:33;;;;;;;;;2.00;2.00;;;;;18.59;65.79;101881.69;5034323;28;45527;-78
2022/10/02 17:11:14;;;;;;;;;0.75;0.75;;;;;18.53;65.78;101891.06;5035159;28;45651;-75
2022/10/02 17:14:08;;;;;;;;;4.50;3.00;;;;;18.54;66.30;101902.78;5034558;28;47380;-74
2022/10/02 17:16:56;;;;;;;;;2.25;2.25;;;;;18.37;66.25;101882.06;5036397;28;45223;-74
2022/10/02 17:19:27;;;;;;;;;1.50;1.50;;;;;18.47;66.63;101906.81;5034319;28;45448;-74
2022/10/02 17:21:58;;;;;;;;;2.00;2.00;;;;;18.44;66.88;101910.63;5042524;28;45615;-72
2022/10/02 17:24:37;;;;;;;;;3.00;3.00;;;;;18.28;66.02;101898.06;5036708;28;45302;-73
2022/10/02 17:27:14;;;;;;;;;3.75;2.50;;;;;18.30;66.13;101920.53;5036714;28;45265;-76
2022/10/02 17:30:13;;;;;;;;;2.75;2.75;;;;;18.33;65.81;101934.81;5036658;28;45431;-73
2022/10/02 17:32:45;;;;;;;;;4.75;3.00;;;;;18.34;65.81;101932.97;5036698;28;45392;-75
2022/10/02 17:35:38;;;;;;;;;3.00;3.00;;;;;18.32;66.02;101935.78;5036381;28;45468;-73
2022/10/02 17:38:24;;;;;;;;;3.00;3.00;;;;;18.25;66.70;101942.53;5035317;28;45806;-78
2022/10/02 17:40:57;;;;;;;;;4.50;3.50;;;;;18.18;66.89;101935.72;5035734;28;45432;-75
2022/10/02 17:43:41;;;;;;;;;3.75;3.75;;;;;18.22;66.24;101958.09;5035822;28;45456;-74
2022/10/02 17:46:18;;;;;;;;;5.00;5.00;;;;;18.19;66.70;101959.19;5035428;28;45363;-73
2022/10/02 17:48:47;;;;;;;;;3.25;3.25;;;;;18.16;65.63;101953.94;5042340;28;45218;-74
2022/10/02 17:51:34;;;;;;;;;4.00;4.00;;;;;18.10;65.91;101949.75;5036474;28;45345;-75
2022/10/02 17:57:00;;;;;;;;;3.00;3.00;;;;;18.11;66.68;101972.34;5035912;28;45490;-78
2022/10/02 17:59:57;;;;;;;;;4.50;4.50;;;;;18.09;66.58;101975.13;5039177;28;45407;-78
2022/10/02 18:02:44;;;;;;;;;3.00;1.75;;;;;18.08;66.20;101980.63;5035921;28;45836;-79
2022/10/02 18:05:36;;;;;;;;;4.25;4.25;;;;;18.07;66.23;101978.88;5018704;28;45607;-76
2022/10/02 18:08:28;;;;;;;;;4.25;4.25;;;;;18.04;66.29;101982.63;5038860;28;45532;-75
2022/10/02 18:11:07;;;;;;;;;5.50;4.50;;;;;18.00;65.93;101993.78;5048757;28;45571;-78
2022/10/02 18:13:35;;;;;;;;;9.25;8.00;;;;;18.01;65.98;101993.69;5035516;28;45471;-75
2022/10/02 18:16:20;;;;;;;;;6.00;6.00;;;;;17.81;66.32;101963.22;5032765;28;46460;-78
2022/10/02 18:19:08;;;;;;;;;5.00;5.00;;;;;17.98;65.77;102011.97;5033329;28;45719;-71
2022/10/02 18:21:52;;;;;;;;;4.75;4.75;;;;;17.95;65.90;102007.59;5034680;28;45508;-75
2022/10/02 18:24:38;;;;;;;;;5.75;5.75;;;;;17.92;65.95;102015.91;5035927;28;45366;-76
2022/10/02 18:27:42;;;;;;;;;5.00;5.00;;;;;17.89;66.19;102013.38;5041568;28;45278;-73
2022/10/02 18:30:14;;;;;;;;;9.00;6.25;;;;;17.90;66.05;102025.97;5053992;28;45365;-73
2022/10/02 18:33:10;;;;;;;;;3.00;3.00;;;;;17.81;65.10;102015.63;5034143;28;45499;-77
2022/10/02 18:35:53;;;;;;;;;4.00;4.00;;;;;17.84;64.89;102028.16;5033671;28;45358;-73
2022/10/02 18:38:48;;;;;;;;;4.00;4.00;;;;;17.79;65.37;102031.13;5035598;28;45454;-76
2022/10/02 18:41:34;;;;;;;;;4.00;4.00;;;;;17.71;65.62;102034.25;5036039;28;45485;-75
2022/10/02 18:44:17;;;;;;;;;4.25;4.25;;;;;17.75;65.78;102034.97;5035245;28;45461;-71
2022/10/02 18:47:01;;;;;;;;;5.00;5.00;;;;;17.75;66.10;102037.69;5034159;28;45432;-73
2022/10/02 18:49:54;;;;;;;;;4.00;4.00;;;;;17.72;65.68;102036.00;5035803;28;45497;-73
2022/10/02 18:52:42;;;;;;;;;4.00;4.00;;;;;17.69;65.70;102043.47;5035955;28;46573;-72
2022/10/02 18:55:37;;;;;;;;;9.50;8.00;;;;;17.64;65.41;102043.69;5033239;28;45647;-74
2022/10/02 18:58:40;;;;;;;;;6.25;6.25;;;;;17.63;65.41;102051.91;5032360;28;45448;-75
2022/10/02 19:01:31;;;;;;;;;8.00;8.00;;;;;17.60;66.13;102046.63;5031899;28;45468;-73
2022/10/02 19:03:59;;;;;;;;;7.00;7.00;;;;;17.58;65.64;102046.72;5033095;28;45499;-74
2022/10/02 19:06:54;;;;;;;;;11.50;9.50;;;;;17.54;66.23;102049.66;5033113;28;45484;-73
2022/10/02 19:09:27;;;;;;;;;11.50;9.75;;;;;17.48;66.07;102052.72;5022062;28;45572;-76
2022/10/02 19:12:00;;;;;;;;;4.50;4.50;;;;;17.52;65.96;102060.63;5035973;28;45509;-77
2022/10/02 19:14:34;;;;;;;;;6.00;6.00;;;;;17.49;66.13;102058.06;5037296;28;46366;-70
2022/10/02 19:17:03;;;;;;;;;5.00;5.00;;;;;17.49;66.16;102070.75;5032927;28;45351;-71
2022/10/02 19:19:29;;;;;;;;;5.00;5.00;;;;;17.45;66.84;102067.28;5033564;28;45616;-73
2022/10/02 19:22:08;;;;;;;;;4.25;4.25;;;;;17.32;65.56;102058.09;5031518;28;45588;-73
2022/10/02 19:24:38;;;;;;;;;4.25;4.25;;;;;17.35;65.82;102072.31;5032885;28;46340;-71
2022/10/02 19:27:07;;;;;;;;;3.00;3.00;;;;;17.33;65.46;102076.09;5021010;28;45692;-73
2022/10/02 19:29:45;;;;;;;;;3.00;3.00;;;;;17.27;65.85;102070.97;5033160;28;45324;-71
2022/10/02 19:32:20;;;;;;;;;3.50;3.50;;;;;17.17;65.94;102070.63;5031174;28;45506;-72
2022/10/02 19:35:17;;;;;;;;;3.50;2.00;;;;;17.11;66.06;102060.06;5034573;28;45620;-73
2022/10/02 19:37:47;;;;;;;;;4.00;2.75;;;;;17.07;66.83;102065.75;5026517;28;45361;-72
2022/10/02 19:40:17;;;;;;;;;4.00;4.00;;;;;17.14;66.99;102083.44;5034529;28;45393;-71
2022/10/02 19:42:50;;;;;;;;;4.00;4.00;;;;;17.15;66.45;102090.63;5034082;28;45236;-72
2022/10/02 19:45:26;;;;;;;;;3.00;3.00;;;;;17.12;66.19;102088.94;5033765;28;46184;-71
2022/10/02 19:48:03;;;;;;;;;3.00;3.00;;;;;17.13;66.63;102096.09;5034054;28;45464;-72
2022/10/02 19:50:43;;;;;;;;;4.75;4.75;;;;;17.13;67.25;102092.53;5034083;28;45321;-72
2022/10/02 19:53:20;;;;;;;;;5.75;4.25;;;;;17.12;66.89;102097.06;5033047;28;45531;-73
2022/10/02 19:55:50;;;;;;;;;5.00;4.00;;;;;17.08;67.16;102095.47;5030760;28;45493;-70
2022/10/02 19:58:21;;;;;;;;;4.75;3.00;;;;;17.12;66.75;102107.91;5034236;28;45313;-72
2022/10/02 20:00:50;;;;;;;;;3.00;3.00;;;;;17.03;66.62;102093.00;5033378;28;45424;-72
2022/10/02 20:03:26;;;;;;;;;4.25;4.25;;;;;16.99;66.81;102091.41;5034055;28;45378;-72
2022/10/02 20:05:58;;;;;;;;;5.00;4.75;;;;;17.05;67.35;102111.00;5033836;28;46272;-76
2022/10/02 20:08:35;;;;;;;;;5.75;4.50;;;;;17.06;66.78;102101.94;5032981;28;45354;-74
2022/10/02 20:11:08;;;;;;;;;3.00;3.00;;;;;17.05;67.36;102117.31;5034435;28;45459;-74
2022/10/02 20:13:41;;;;;;;;;5.25;4.25;;;;;17.05;67.42;102122.72;5033404;28;45331;-75
2022/10/02 20:19:06;;;;;;;;;5.00;5.00;;;;;16.96;67.55;102124.06;5024139;28;45347;-75
2022/10/02 20:21:43;;;;;;;;;4.25;4.25;;;;;16.83;67.31;102114.81;5034945;28;45382;-75
2022/10/02 20:24:24;;;;;;;;;6.00;6.00;;;;;16.82;67.78;102123.88;5034865;28;45382;-75
2022/10/02 20:26:53;;;;;;;;;6.00;6.00;;;;;16.71;68.59;102115.41;5035384;28;45381;-75
2022/10/02 20:29:33;;;;;;;;;5.75;5.75;;;;;16.75;67.89;102118.88;5034458;28;45271;-74
2022/10/02 20:32:10;;;;;;;;;6.00;6.00;;;;;16.82;67.83;102150.09;5017496;28;45689;-76
2022/10/02 20:34:39;;;;;;;;;8.50;8.00;;;;;16.68;68.24;102122.81;5034246;28;45407;-76
2022/10/02 20:37:10;;;;;;;;;7.00;7.00;;;;;16.81;68.64;102151.94;5034401;28;45632;-76
2022/10/02 20:39:49;;;;;;;;;6.50;6.50;;;;;16.80;68.07;102155.59;5034280;28;45531;-74
2022/10/02 20:42:24;;;;;;;;;7.00;7.00;;;;;16.68;68.49;102142.63;5029054;28;45354;-76
2022/10/02 20:44:49;;;;;;;;;7.50;6.75;;;;;16.68;68.44;102144.47;5034234;28;45559;-75
2022/10/02 20:47:50;;;;;;;;;7.75;7.75;;;;;16.80;68.28;102162.84;5034408;28;45993;-74
2022/10/02 20:50:35;;;;;;;;;10.75;9.75;;;;;16.71;68.56;102144.31;5035126;28;45374;-76
2022/10/02 20:53:14;;;;;;;;;8.75;7.00;;;;;16.71;68.99;102147.03;5033892;28;45419;-75
2022/10/02 20:56:03;;;;;;;;;7.00;7.00;;;;;16.74;69.05;102153.19;5035022;28;45512;-75
2022/10/02 20:58:56;;;;;;;;;11.00;11.00;;;;;16.72;68.56;102156.91;5035742;28;46998;-76
2022/10/02 21:01:39;;;;;;;;;12.50;12.50;;;;;16.67;68.89;102164.41;5035129;28;45386;-75
2022/10/02 21:04:19;;;;;;;;;10.75;10.75;;;;;16.66;68.51;102163.53;5040482;28;45464;-76
2022/10/02 21:07:11;;;;;;;;;7.50;7.50;;;;;16.57;69.27;102151.28;5039096;28;45507;-76
2022/10/02 21:10:01;;;;;;;;;9.00;9.00;;;;;16.67;69.40;102167.09;5036814;28;46326;-75
2022/10/02 21:12:49;;;;;;;;;7.50;6.50;;;;;16.63;69.43;102172.66;5035711;28;45415;-75
2022/10/02 21:15:17;;;;;;;;;10.25;9.00;;;;;16.62;69.15;102175.44;5036118;28;45346;-76
2022/10/02 21:17:55;;;;;;;;;10.75;9.75;;;;;16.61;69.18;102179.09;5035461;28;45210;-76
2022/10/02 21:20:58;;;;;;;;;8.25;7.25;;;;;16.59;69.12;102179.13;5037121;28;47094;-75
2022/10/02 21:23:57;;;;;;;;;9.25;6.50;;;;;16.57;69.42;102183.75;5037878;28;45307;-75
2022/10/02 21:26:44;;;;;;;;;6.50;6.50;;;;;16.53;69.59;102190.25;5038380;28;45367;-75